sensor_id;sensor_type;location;lat;lon;timestamp;temperature;humidity
25320;DHT22;13256;49.012;8.610;2023-05-07T00:03:33;13.20;99.90
25320;DHT22;13256;49.012;8.610;2023-05-07T00:06:08;13.20;99.90
25320;DHT22;13256;49.012;8.610;2023-05-07T00:08:38;13.20;99.90
25320;DHT22;13256;49.012;8.610;2023-05-07T00:11:10;13.20;99.90
25320;DHT22;13256;49.012;8.610;2023-05-07T00:13:39;13.20;99.90
25320;DHT22;13256;49.012;8.610;2023-05-07T00:16:09;13.10;99.90
25320;DHT22;13256;49.012;8.610;2023-05-07T00:18:39;13.10;99.90
25320;DHT22;13256;49.012;8.610;2023-05-07T00:21:12;13.00;99.90
25320;DHT22;13256;49.012;8.610;2023-05-07T00:23:40;12.90;99.90
25320;DHT22;13256;49.012;8.610;2023-05-07T00:26:11;13.00;99.90
25320;DHT22;13256;49.012;8.610;2023-05-07T00:28:45;12.90;99.90
25320;DHT22;13256;49.012;8.610;2023-05-07T00:31:15;12.90;99.90
25320;DHT22;13256;49.012;8.610;2023-05-07T00:33:45;12.90;99.90
25320;DHT22;13256;49.012;8.610;2023-05-07T00:36:40;12.90;99.90
25320;DHT22;13256;49.012;8.610;2023-05-07T00:39:38;12.80;99.90
25320;DHT22;13256;49.012;8.610;2023-05-07T00:42:36;12.80;99.90
25320;DHT22;13256;49.012;8.610;2023-05-07T00:45:05;12.80;99.90
25320;DHT22;13256;49.012;8.610;2023-05-07T00:47:47;12.80;99.90
25320;DHT22;13256;49.012;8.610;2023-05-07T00:50:19;12.90;99.90
25320;DHT22;13256;49.012;8.610;2023-05-07T00:52:46;12.80;99.90
25320;DHT22;13256;49.012;8.610;2023-05-07T00:55:20;12.90;99.90
25320;DHT22;13256;49.012;8.610;2023-05-07T00:57:50;12.80;99.90
25320;DHT22;13256;49.012;8.610;2023-05-07T01:00:23;12.70;99.90
25320;DHT22;13256;49.012;8.610;2023-05-07T01:02:54;12.60;99.90
25320;DHT22;13256;49.012;8.610;2023-05-07T01:05:23;12.60;99.90
25320;DHT22;13256;49.012;8.610;2023-05-07T01:07:55;12.60;99.90
25320;DHT22;13256;49.012;8.610;2023-05-07T01:10:25;12.60;99.90
25320;DHT22;13256;49.012;8.610;2023-05-07T01:12:55;12.60;99.90
25320;DHT22;13256;49.012;8.610;2023-05-07T01:15:52;12.70;99.90
25320;DHT22;13256;49.012;8.610;2023-05-07T01:18:27;12.70;99.90
25320;DHT22;13256;49.012;8.610;2023-05-07T01:20:59;12.70;99.90
25320;DHT22;13256;49.012;8.610;2023-05-07T01:23:33;12.70;99.90
25320;DHT22;13256;49.012;8.610;2023-05-07T01:26:03;12.80;99.90
25320;DHT22;13256;49.012;8.610;2023-05-07T01:28:37;12.80;99.90
25320;DHT22;13256;49.012;8.610;2023-05-07T01:39:48;12.90;99.90
25320;DHT22;13256;49.012;8.610;2023-05-07T01:42:15;12.90;99.90
25320;DHT22;13256;49.012;8.610;2023-05-07T01:44:41;12.80;99.90
25320;DHT22;13256;49.012;8.610;2023-05-07T01:50:32;12.80;99.90
25320;DHT22;13256;49.012;8.610;2023-05-07T01:52:59;12.70;99.90
25320;DHT22;13256;49.012;8.610;2023-05-07T01:55:31;12.70;99.90
25320;DHT22;13256;49.012;8.610;2023-05-07T01:57:58;12.70;99.90
25320;DHT22;13256;49.012;8.610;2023-05-07T02:00:28;12.80;99.90
25320;DHT22;13256;49.012;8.610;2023-05-07T02:02:57;12.80;99.90
25320;DHT22;13256;49.012;8.610;2023-05-07T02:05:41;12.80;99.90
25320;DHT22;13256;49.012;8.610;2023-05-07T02:08:22;12.80;99.90
25320;DHT22;13256;49.012;8.610;2023-05-07T02:10:52;12.80;99.90
25320;DHT22;13256;49.012;8.610;2023-05-07T02:13:21;12.80;99.90
25320;DHT22;13256;49.012;8.610;2023-05-07T02:15:49;12.80;99.90
25320;DHT22;13256;49.012;8.610;2023-05-07T02:18:30;12.70;99.90
25320;DHT22;13256;49.012;8.610;2023-05-07T02:20:58;12.70;99.90
25320;DHT22;13256;49.012;8.610;2023-05-07T02:23:25;12.60;99.90
25320;DHT22;13256;49.012;8.610;2023-05-07T02:26:21;12.60;99.90
25320;DHT22;13256;49.012;8.610;2023-05-07T02:28:49;12.60;99.90
25320;DHT22;13256;49.012;8.610;2023-05-07T02:31:18;12.60;99.90
25320;DHT22;13256;49.012;8.610;2023-05-07T02:33:46;12.50;99.90
25320;DHT22;13256;49.012;8.610;2023-05-07T02:36:29;12.60;99.90
25320;DHT22;13256;49.012;8.610;2023-05-07T02:39:32;12.60;99.90
25320;DHT22;13256;49.012;8.610;2023-05-07T02:42:21;12.60;99.90
25320;DHT22;13256;49.012;8.610;2023-05-07T02:44:48;12.70;99.90
25320;DHT22;13256;49.012;8.610;2023-05-07T02:47:48;12.70;99.90
25320;DHT22;13256;49.012;8.610;2023-05-07T02:50:17;12.70;99.90
25320;DHT22;13256;49.012;8.610;2023-05-07T02:52:44;12.70;99.90
25320;DHT22;13256;49.012;8.610;2023-05-07T02:55:15;12.70;99.90
25320;DHT22;13256;49.012;8.610;2023-05-07T02:57:50;12.70;99.90
25320;DHT22;13256;49.012;8.610;2023-05-07T03:00:23;12.70;99.90
25320;DHT22;13256;49.012;8.610;2023-05-07T03:03:01;12.60;99.90
25320;DHT22;13256;49.012;8.610;2023-05-07T03:05:33;12.70;99.90
25320;DHT22;13256;49.012;8.610;2023-05-07T03:08:03;12.60;99.90
25320;DHT22;13256;49.012;8.610;2023-05-07T03:10:31;12.60;99.90
25320;DHT22;13256;49.012;8.610;2023-05-07T03:12:58;12.60;99.90
25320;DHT22;13256;49.012;8.610;2023-05-07T03:15:27;12.60;99.90
25320;DHT22;13256;49.012;8.610;2023-05-07T03:17:55;12.60;99.90
25320;DHT22;13256;49.012;8.610;2023-05-07T03:20:23;12.60;99.90
25320;DHT22;13256;49.012;8.610;2023-05-07T03:22:49;12.50;99.90
25320;DHT22;13256;49.012;8.610;2023-05-07T03:25:16;12.50;99.90
25320;DHT22;13256;49.012;8.610;2023-05-07T03:31:09;12.50;99.90
25320;DHT22;13256;49.012;8.610;2023-05-07T03:39:22;12.40;99.90
25320;DHT22;13256;49.012;8.610;2023-05-07T03:42:18;12.30;99.90
25320;DHT22;13256;49.012;8.610;2023-05-07T03:44:54;12.30;99.90
25320;DHT22;13256;49.012;8.610;2023-05-07T03:47:22;12.30;99.90
25320;DHT22;13256;49.012;8.610;2023-05-07T03:49:49;12.30;99.90
25320;DHT22;13256;49.012;8.610;2023-05-07T03:52:20;12.30;99.90
25320;DHT22;13256;49.012;8.610;2023-05-07T03:57:35;12.30;99.90
25320;DHT22;13256;49.012;8.610;2023-05-07T04:00:03;12.30;99.90
25320;DHT22;13256;49.012;8.610;2023-05-07T04:02:35;12.30;99.90
25320;DHT22;13256;49.012;8.610;2023-05-07T04:05:08;12.20;99.90
25320;DHT22;13256;49.012;8.610;2023-05-07T04:07:35;12.20;99.90
25320;DHT22;13256;49.012;8.610;2023-05-07T04:10:30;12.20;99.90
25320;DHT22;13256;49.012;8.610;2023-05-07T04:13:00;12.20;99.90
25320;DHT22;13256;49.012;8.610;2023-05-07T04:15:30;12.20;99.90
25320;DHT22;13256;49.012;8.610;2023-05-07T04:18:00;12.20;99.90
25320;DHT22;13256;49.012;8.610;2023-05-07T04:20:29;12.20;99.90
25320;DHT22;13256;49.012;8.610;2023-05-07T04:23:05;12.20;99.90
25320;DHT22;13256;49.012;8.610;2023-05-07T04:25:34;12.20;99.90
25320;DHT22;13256;49.012;8.610;2023-05-07T04:28:13;12.20;99.90
25320;DHT22;13256;49.012;8.610;2023-05-07T04:30:41;12.20;99.90
25320;DHT22;13256;49.012;8.610;2023-05-07T04:33:12;12.20;99.90
25320;DHT22;13256;49.012;8.610;2023-05-07T04:36:12;12.20;99.90
25320;DHT22;13256;49.012;8.610;2023-05-07T04:38:54;12.20;99.90
25320;DHT22;13256;49.012;8.610;2023-05-07T04:41:29;12.20;99.90
25320;DHT22;13256;49.012;8.610;2023-05-07T04:43:57;12.30;99.90
25320;DHT22;13256;49.012;8.610;2023-05-07T04:46:53;12.30;99.90
25320;DHT22;13256;49.012;8.610;2023-05-07T04:55:19;12.50;99.90
25320;DHT22;13256;49.012;8.610;2023-05-07T05:01:06;12.60;99.90
25320;DHT22;13256;49.012;8.610;2023-05-07T05:03:39;12.60;99.90
25320;DHT22;13256;49.012;8.610;2023-05-07T05:06:33;12.60;99.90
25320;DHT22;13256;49.012;8.610;2023-05-07T05:09:24;12.70;99.90
25320;DHT22;13256;49.012;8.610;2023-05-07T05:11:53;12.70;99.90
25320;DHT22;13256;49.012;8.610;2023-05-07T05:14:22;12.80;99.90
25320;DHT22;13256;49.012;8.610;2023-05-07T05:29:03;13.00;99.90
25320;DHT22;13256;49.012;8.610;2023-05-07T05:31:35;13.10;99.90
25320;DHT22;13256;49.012;8.610;2023-05-07T05:34:10;13.10;99.90
25320;DHT22;13256;49.012;8.610;2023-05-07T05:36:41;13.20;99.90
25320;DHT22;13256;49.012;8.610;2023-05-07T05:39:12;13.30;99.90
25320;DHT22;13256;49.012;8.610;2023-05-07T05:41:50;13.30;99.90
25320;DHT22;13256;49.012;8.610;2023-05-07T05:44:23;13.40;99.90
25320;DHT22;13256;49.012;8.610;2023-05-07T05:53:07;13.80;99.90
25320;DHT22;13256;49.012;8.610;2023-05-07T05:58:59;14.20;99.90
25320;DHT22;13256;49.012;8.610;2023-05-07T06:01:31;14.30;99.90
25320;DHT22;13256;49.012;8.610;2023-05-07T06:04:07;14.40;99.90
25320;DHT22;13256;49.012;8.610;2023-05-07T06:06:37;14.50;99.90
25320;DHT22;13256;49.012;8.610;2023-05-07T06:12:36;14.70;99.90
25320;DHT22;13256;49.012;8.610;2023-05-07T06:15:06;14.80;99.90
25320;DHT22;13256;49.012;8.610;2023-05-07T06:21:05;15.00;99.90
25320;DHT22;13256;49.012;8.610;2023-05-07T06:24:32;15.10;99.90
25320;DHT22;13256;49.012;8.610;2023-05-07T06:26:59;15.20;99.90
25320;DHT22;13256;49.012;8.610;2023-05-07T06:29:33;15.30;99.90
25320;DHT22;13256;49.012;8.610;2023-05-07T06:38:05;15.60;99.90
25320;DHT22;13256;49.012;8.610;2023-05-07T06:40:36;15.70;99.90
25320;DHT22;13256;49.012;8.610;2023-05-07T06:43:03;15.90;99.90
25320;DHT22;13256;49.012;8.610;2023-05-07T06:45:51;15.90;99.90
25320;DHT22;13256;49.012;8.610;2023-05-07T06:48:34;16.00;99.90
25320;DHT22;13256;49.012;8.610;2023-05-07T06:51:08;16.10;99.90
25320;DHT22;13256;49.012;8.610;2023-05-07T06:53:36;16.20;99.90
25320;DHT22;13256;49.012;8.610;2023-05-07T06:56:33;16.40;99.90
25320;DHT22;13256;49.012;8.610;2023-05-07T06:59:11;16.60;99.90
25320;DHT22;13256;49.012;8.610;2023-05-07T07:02:11;16.70;99.90
25320;DHT22;13256;49.012;8.610;2023-05-07T07:04:48;16.80;99.90
25320;DHT22;13256;49.012;8.610;2023-05-07T07:07:18;16.90;99.90
25320;DHT22;13256;49.012;8.610;2023-05-07T07:09:49;16.90;99.90
25320;DHT22;13256;49.012;8.610;2023-05-07T07:12:22;17.00;99.90
25320;DHT22;13256;49.012;8.610;2023-05-07T07:14:58;17.00;99.90
25320;DHT22;13256;49.012;8.610;2023-05-07T07:17:26;17.10;99.90
25320;DHT22;13256;49.012;8.610;2023-05-07T07:20:05;17.20;99.90
25320;DHT22;13256;49.012;8.610;2023-05-07T07:22:35;17.40;99.90
25320;DHT22;13256;49.012;8.610;2023-05-07T07:25:05;17.60;99.90
25320;DHT22;13256;49.012;8.610;2023-05-07T07:28:03;17.90;99.90
25320;DHT22;13256;49.012;8.610;2023-05-07T07:30:31;18.00;99.90
25320;DHT22;13256;49.012;8.610;2023-05-07T07:36:48;18.30;99.90
25320;DHT22;13256;49.012;8.610;2023-05-07T07:39:18;18.50;99.90
25320;DHT22;13256;49.012;8.610;2023-05-07T07:41:48;18.70;99.90
25320;DHT22;13256;49.012;8.610;2023-05-07T07:44:19;18.80;99.90
25320;DHT22;13256;49.012;8.610;2023-05-07T07:50:20;19.10;99.90
25320;DHT22;13256;49.012;8.610;2023-05-07T07:53:37;19.30;99.90
25320;DHT22;13256;49.012;8.610;2023-05-07T07:56:06;19.40;99.90
25320;DHT22;13256;49.012;8.610;2023-05-07T07:58:35;19.50;99.90
25320;DHT22;13256;49.012;8.610;2023-05-07T08:01:09;19.50;99.90
25320;DHT22;13256;49.012;8.610;2023-05-07T08:03:37;19.50;99.90
25320;DHT22;13256;49.012;8.610;2023-05-07T08:06:09;19.50;99.90
25320;DHT22;13256;49.012;8.610;2023-05-07T08:08:38;19.50;99.90
25320;DHT22;13256;49.012;8.610;2023-05-07T08:11:35;19.60;99.90
25320;DHT22;13256;49.012;8.610;2023-05-07T08:14:04;19.70;99.90
25320;DHT22;13256;49.012;8.610;2023-05-07T08:16:34;19.80;99.90
25320;DHT22;13256;49.012;8.610;2023-05-07T09:17:51;23.20;99.90
25320;DHT22;13256;49.012;8.610;2023-05-07T09:47:39;24.20;99.90
25320;DHT22;13256;49.012;8.610;2023-05-07T09:50:44;24.20;99.90
25320;DHT22;13256;49.012;8.610;2023-05-07T09:53:17;24.00;99.90
25320;DHT22;13256;49.012;8.610;2023-05-07T09:55:46;24.10;99.90
25320;DHT22;13256;49.012;8.610;2023-05-07T10:01:19;24.50;99.90
25320;DHT22;13256;49.012;8.610;2023-05-07T10:07:03;24.70;99.90
25320;DHT22;13256;49.012;8.610;2023-05-07T10:09:37;24.90;99.90
25320;DHT22;13256;49.012;8.610;2023-05-07T10:12:12;25.30;99.90
25320;DHT22;13256;49.012;8.610;2023-05-07T10:14:43;25.80;99.90
25320;DHT22;13256;49.012;8.610;2023-05-07T10:17:18;26.20;99.90
25320;DHT22;13256;49.012;8.610;2023-05-07T10:19:54;26.60;99.90
25320;DHT22;13256;49.012;8.610;2023-05-07T10:22:25;26.70;99.00
25320;DHT22;13256;49.012;8.610;2023-05-07T10:24:56;26.60;98.90
25320;DHT22;13256;49.012;8.610;2023-05-07T10:27:25;26.80;98.30
25320;DHT22;13256;49.012;8.610;2023-05-07T10:33:07;27.20;97.90
25320;DHT22;13256;49.012;8.610;2023-05-07T10:35:40;27.50;96.10
25320;DHT22;13256;49.012;8.610;2023-05-07T10:38:09;27.60;95.10
25320;DHT22;13256;49.012;8.610;2023-05-07T10:40:43;27.80;94.80
25320;DHT22;13256;49.012;8.610;2023-05-07T10:43:14;27.80;96.00
25320;DHT22;13256;49.012;8.610;2023-05-07T10:46:09;27.90;94.50
25320;DHT22;13256;49.012;8.610;2023-05-07T10:51:45;27.80;94.30
25320;DHT22;13256;49.012;8.610;2023-05-07T10:54:34;27.80;95.10
25320;DHT22;13256;49.012;8.610;2023-05-07T10:57:34;28.10;95.00
25320;DHT22;13256;49.012;8.610;2023-05-07T11:14:14;29.40;91.90
25320;DHT22;13256;49.012;8.610;2023-05-07T11:17:11;29.20;90.90
25320;DHT22;13256;49.012;8.610;2023-05-07T11:20:09;29.30;90.50
25320;DHT22;13256;49.012;8.610;2023-05-07T11:22:42;29.20;90.40
25320;DHT22;13256;49.012;8.610;2023-05-07T11:25:25;29.10;91.50
25320;DHT22;13256;49.012;8.610;2023-05-07T11:28:16;28.90;90.60
25320;DHT22;13256;49.012;8.610;2023-05-07T11:30:52;29.20;89.00
25320;DHT22;13256;49.012;8.610;2023-05-07T11:33:22;29.30;88.40
25320;DHT22;13256;49.012;8.610;2023-05-07T11:35:56;29.10;88.60
25320;DHT22;13256;49.012;8.610;2023-05-07T11:38:35;29.00;89.90
25320;DHT22;13256;49.012;8.610;2023-05-07T11:41:02;29.00;86.00
25320;DHT22;13256;49.012;8.610;2023-05-07T11:43:31;29.20;88.00
25320;DHT22;13256;49.012;8.610;2023-05-07T11:46:07;29.50;85.80
25320;DHT22;13256;49.012;8.610;2023-05-07T11:48:39;29.80;85.40
25320;DHT22;13256;49.012;8.610;2023-05-07T11:51:33;29.80;80.90
25320;DHT22;13256;49.012;8.610;2023-05-07T11:54:05;29.90;83.80
25320;DHT22;13256;49.012;8.610;2023-05-07T11:56:38;30.10;82.60
25320;DHT22;13256;49.012;8.610;2023-05-07T11:59:05;29.90;83.60
25320;DHT22;13256;49.012;8.610;2023-05-07T12:01:35;29.80;84.30
25320;DHT22;13256;49.012;8.610;2023-05-07T12:04:03;30.00;83.10
25320;DHT22;13256;49.012;8.610;2023-05-07T12:06:36;30.00;83.20
25320;DHT22;13256;49.012;8.610;2023-05-07T12:09:04;29.90;83.00
25320;DHT22;13256;49.012;8.610;2023-05-07T12:11:47;29.60;80.90
25320;DHT22;13256;49.012;8.610;2023-05-07T12:14:19;29.40;81.70
25320;DHT22;13256;49.012;8.610;2023-05-07T12:17:14;28.90;83.00
25320;DHT22;13256;49.012;8.610;2023-05-07T12:19:44;29.00;84.30
25320;DHT22;13256;49.012;8.610;2023-05-07T12:22:15;29.20;83.20
25320;DHT22;13256;49.012;8.610;2023-05-07T12:24:49;29.70;82.80
25320;DHT22;13256;49.012;8.610;2023-05-07T12:27:17;30.00;81.70
25320;DHT22;13256;49.012;8.610;2023-05-07T12:29:48;30.30;78.30
25320;DHT22;13256;49.012;8.610;2023-05-07T12:32:16;30.50;80.40
25320;DHT22;13256;49.012;8.610;2023-05-07T12:34:46;30.30;79.00
25320;DHT22;13256;49.012;8.610;2023-05-07T12:37:14;29.80;78.80
25320;DHT22;13256;49.012;8.610;2023-05-07T12:40:04;29.40;82.00
25320;DHT22;13256;49.012;8.610;2023-05-07T12:42:40;29.00;81.00
25320;DHT22;13256;49.012;8.610;2023-05-07T13:05:23;27.20;85.20
25320;DHT22;13256;49.012;8.610;2023-05-07T13:07:55;26.80;86.40
25320;DHT22;13256;49.012;8.610;2023-05-07T13:10:26;26.60;86.90
25320;DHT22;13256;49.012;8.610;2023-05-07T13:16:15;25.80;87.60
25320;DHT22;13256;49.012;8.610;2023-05-07T13:18:51;25.00;85.70
25320;DHT22;13256;49.012;8.610;2023-05-07T13:21:27;24.40;84.70
25320;DHT22;13256;49.012;8.610;2023-05-07T13:26:59;23.20;90.50
25320;DHT22;13256;49.012;8.610;2023-05-07T13:29:32;22.60;91.50
25320;DHT22;13256;49.012;8.610;2023-05-07T13:34:48;21.50;94.10
25320;DHT22;13256;49.012;8.610;2023-05-07T13:37:21;21.00;95.50
25320;DHT22;13256;49.012;8.610;2023-05-07T13:42:40;20.50;97.70
25320;DHT22;13256;49.012;8.610;2023-05-07T13:45:11;19.90;97.40
25320;DHT22;13256;49.012;8.610;2023-05-07T13:47:44;19.00;97.90
25320;DHT22;13256;49.012;8.610;2023-05-07T13:50:23;18.40;99.90
25320;DHT22;13256;49.012;8.610;2023-05-07T13:52:54;17.80;99.90
25320;DHT22;13256;49.012;8.610;2023-05-07T14:07:20;16.80;99.90
25320;DHT22;13256;49.012;8.610;2023-05-07T14:09:46;16.60;99.90
25320;DHT22;13256;49.012;8.610;2023-05-07T14:12:17;16.60;99.90
25320;DHT22;13256;49.012;8.610;2023-05-07T14:14:49;16.60;99.90
25320;DHT22;13256;49.012;8.610;2023-05-07T14:17:18;16.80;99.90
25320;DHT22;13256;49.012;8.610;2023-05-07T14:19:45;16.80;99.90
25320;DHT22;13256;49.012;8.610;2023-05-07T14:22:17;17.00;99.90
25320;DHT22;13256;49.012;8.610;2023-05-07T14:27:55;17.20;99.90
25320;DHT22;13256;49.012;8.610;2023-05-07T14:30:22;17.40;99.90
25320;DHT22;13256;49.012;8.610;2023-05-07T14:32:56;17.50;99.90
25320;DHT22;13256;49.012;8.610;2023-05-07T14:35:31;17.60;99.90
25320;DHT22;13256;49.012;8.610;2023-05-07T14:37:59;17.50;99.90
25320;DHT22;13256;49.012;8.610;2023-05-07T14:40:27;17.40;99.90
25320;DHT22;13256;49.012;8.610;2023-05-07T14:42:55;17.50;99.90
25320;DHT22;13256;49.012;8.610;2023-05-07T14:45:23;17.60;99.90
25320;DHT22;13256;49.012;8.610;2023-05-07T14:47:51;17.60;99.90
25320;DHT22;13256;49.012;8.610;2023-05-07T14:50:17;17.60;99.90
25320;DHT22;13256;49.012;8.610;2023-05-07T14:53:11;17.60;99.90
25320;DHT22;13256;49.012;8.610;2023-05-07T14:55:45;17.70;99.90
25320;DHT22;13256;49.012;8.610;2023-05-07T14:58:16;17.70;99.90
25320;DHT22;13256;49.012;8.610;2023-05-07T15:00:44;17.80;99.90
25320;DHT22;13256;49.012;8.610;2023-05-07T15:03:12;18.00;99.90
25320;DHT22;13256;49.012;8.610;2023-05-07T15:05:43;18.20;99.90
25320;DHT22;13256;49.012;8.610;2023-05-07T15:08:10;18.40;99.90
25320;DHT22;13256;49.012;8.610;2023-05-07T15:10:40;18.50;99.90
25320;DHT22;13256;49.012;8.610;2023-05-07T15:13:10;18.70;99.90
25320;DHT22;13256;49.012;8.610;2023-05-07T15:16:08;18.80;99.90
25320;DHT22;13256;49.012;8.610;2023-05-07T15:18:35;18.90;99.90
25320;DHT22;13256;49.012;8.610;2023-05-07T15:21:05;18.90;99.90
25320;DHT22;13256;49.012;8.610;2023-05-07T15:23:56;19.00;99.90
25320;DHT22;13256;49.012;8.610;2023-05-07T15:26:26;19.00;99.90
25320;DHT22;13256;49.012;8.610;2023-05-07T15:29:02;19.10;99.90
25320;DHT22;13256;49.012;8.610;2023-05-07T15:31:43;19.10;99.90
25320;DHT22;13256;49.012;8.610;2023-05-07T15:34:16;19.20;99.90
25320;DHT22;13256;49.012;8.610;2023-05-07T15:36:46;19.10;99.90
25320;DHT22;13256;49.012;8.610;2023-05-07T15:39:18;19.10;99.90
25320;DHT22;13256;49.012;8.610;2023-05-07T15:41:45;19.20;99.90
25320;DHT22;13256;49.012;8.610;2023-05-07T15:44:18;19.20;99.90
25320;DHT22;13256;49.012;8.610;2023-05-07T15:46:46;19.20;99.90
25320;DHT22;13256;49.012;8.610;2023-05-07T15:49:18;19.20;99.90
25320;DHT22;13256;49.012;8.610;2023-05-07T15:51:49;19.20;99.90
25320;DHT22;13256;49.012;8.610;2023-05-07T15:54:19;19.20;99.90
25320;DHT22;13256;49.012;8.610;2023-05-07T15:56:47;19.20;99.90
25320;DHT22;13256;49.012;8.610;2023-05-07T15:59:17;19.30;99.90
25320;DHT22;13256;49.012;8.610;2023-05-07T16:01:47;19.20;99.90
25320;DHT22;13256;49.012;8.610;2023-05-07T16:04:17;19.20;99.90
25320;DHT22;13256;49.012;8.610;2023-05-07T16:06:46;19.20;99.90
25320;DHT22;13256;49.012;8.610;2023-05-07T16:09:13;19.30;99.90
25320;DHT22;13256;49.012;8.610;2023-05-07T16:11:42;19.30;99.90
25320;DHT22;13256;49.012;8.610;2023-05-07T16:17:03;19.40;99.90
25320;DHT22;13256;49.012;8.610;2023-05-07T16:19:31;19.40;99.90
25320;DHT22;13256;49.012;8.610;2023-05-07T16:21:59;19.30;99.90
25320;DHT22;13256;49.012;8.610;2023-05-07T16:24:25;19.20;99.90
25320;DHT22;13256;49.012;8.610;2023-05-07T16:26:52;19.00;99.90
25320;DHT22;13256;49.012;8.610;2023-05-07T16:29:22;18.90;99.90
25320;DHT22;13256;49.012;8.610;2023-05-07T16:31:52;18.70;99.90
25320;DHT22;13256;49.012;8.610;2023-05-07T16:34:19;18.60;99.90
25320;DHT22;13256;49.012;8.610;2023-05-07T16:36:54;18.50;99.90
25320;DHT22;13256;49.012;8.610;2023-05-07T16:39:25;18.40;99.90
25320;DHT22;13256;49.012;8.610;2023-05-07T16:41:54;18.30;99.90
25320;DHT22;13256;49.012;8.610;2023-05-07T16:44:21;18.20;99.90
25320;DHT22;13256;49.012;8.610;2023-05-07T16:46:47;18.00;99.90
25320;DHT22;13256;49.012;8.610;2023-05-07T16:49:18;17.80;99.90
25320;DHT22;13256;49.012;8.610;2023-05-07T16:51:47;17.70;99.90
25320;DHT22;13256;49.012;8.610;2023-05-07T16:54:15;17.60;99.90
25320;DHT22;13256;49.012;8.610;2023-05-07T16:56:43;17.50;99.90
25320;DHT22;13256;49.012;8.610;2023-05-07T16:59:11;17.40;99.90
25320;DHT22;13256;49.012;8.610;2023-05-07T17:01:39;17.30;99.90
25320;DHT22;13256;49.012;8.610;2023-05-07T17:04:09;17.20;99.90
25320;DHT22;13256;49.012;8.610;2023-05-07T17:06:36;17.20;99.90
25320;DHT22;13256;49.012;8.610;2023-05-07T17:09:04;17.10;99.90
25320;DHT22;13256;49.012;8.610;2023-05-07T17:11:32;17.10;99.90
25320;DHT22;13256;49.012;8.610;2023-05-07T17:14:02;17.10;99.90
25320;DHT22;13256;49.012;8.610;2023-05-07T17:16:35;17.00;99.90
25320;DHT22;13256;49.012;8.610;2023-05-07T17:19:03;16.90;99.90
25320;DHT22;13256;49.012;8.610;2023-05-07T17:21:59;16.90;99.90
25320;DHT22;13256;49.012;8.610;2023-05-07T17:24:53;16.90;99.90
25320;DHT22;13256;49.012;8.610;2023-05-07T17:27:19;16.90;99.90
25320;DHT22;13256;49.012;8.610;2023-05-07T17:29:46;16.90;99.90
25320;DHT22;13256;49.012;8.610;2023-05-07T17:32:15;16.80;99.90
25320;DHT22;13256;49.012;8.610;2023-05-07T17:34:44;16.70;99.90
25320;DHT22;13256;49.012;8.610;2023-05-07T17:37:12;16.80;99.90
25320;DHT22;13256;49.012;8.610;2023-05-07T17:42:26;16.60;99.90
25320;DHT22;13256;49.012;8.610;2023-05-07T17:44:57;16.60;99.90
25320;DHT22;13256;49.012;8.610;2023-05-07T17:47:24;16.60;99.90
25320;DHT22;13256;49.012;8.610;2023-05-07T17:49:55;16.60;99.90
25320;DHT22;13256;49.012;8.610;2023-05-07T17:52:32;16.60;99.90
25320;DHT22;13256;49.012;8.610;2023-05-07T17:55:26;16.50;99.90
25320;DHT22;13256;49.012;8.610;2023-05-07T17:57:59;16.60;99.90
25320;DHT22;13256;49.012;8.610;2023-05-07T18:00:30;16.50;99.90
25320;DHT22;13256;49.012;8.610;2023-05-07T18:03:04;16.50;99.90
25320;DHT22;13256;49.012;8.610;2023-05-07T18:05:38;16.50;99.90
25320;DHT22;13256;49.012;8.610;2023-05-07T18:08:06;16.60;99.90
25320;DHT22;13256;49.012;8.610;2023-05-07T18:10:35;16.70;99.90
25320;DHT22;13256;49.012;8.610;2023-05-07T18:13:05;16.70;99.90
25320;DHT22;13256;49.012;8.610;2023-05-07T18:15:32;16.70;99.90
25320;DHT22;13256;49.012;8.610;2023-05-07T18:18:00;16.70;99.90
25320;DHT22;13256;49.012;8.610;2023-05-07T18:20:31;16.70;99.90
25320;DHT22;13256;49.012;8.610;2023-05-07T18:23:14;16.70;99.90
25320;DHT22;13256;49.012;8.610;2023-05-07T18:25:45;16.60;99.90
25320;DHT22;13256;49.012;8.610;2023-05-07T18:28:45;16.60;99.90
25320;DHT22;13256;49.012;8.610;2023-05-07T18:31:15;16.50;99.90
25320;DHT22;13256;49.012;8.610;2023-05-07T18:33:51;16.50;99.90
25320;DHT22;13256;49.012;8.610;2023-05-07T18:36:18;16.50;99.90
25320;DHT22;13256;49.012;8.610;2023-05-07T18:38:45;16.50;99.90
25320;DHT22;13256;49.012;8.610;2023-05-07T18:41:19;16.50;99.90
25320;DHT22;13256;49.012;8.610;2023-05-07T18:43:47;16.50;99.90
25320;DHT22;13256;49.012;8.610;2023-05-07T18:46:15;16.50;99.90
25320;DHT22;13256;49.012;8.610;2023-05-07T18:48:42;16.40;99.90
25320;DHT22;13256;49.012;8.610;2023-05-07T18:51:10;16.50;99.90
25320;DHT22;13256;49.012;8.610;2023-05-07T18:53:42;16.50;99.90
25320;DHT22;13256;49.012;8.610;2023-05-07T18:56:15;16.50;99.90
25320;DHT22;13256;49.012;8.610;2023-05-07T18:58:45;16.50;99.90
25320;DHT22;13256;49.012;8.610;2023-05-07T19:01:13;16.50;99.90
25320;DHT22;13256;49.012;8.610;2023-05-07T19:03:42;16.50;99.90
25320;DHT22;13256;49.012;8.610;2023-05-07T19:12:07;16.50;99.90
25320;DHT22;13256;49.012;8.610;2023-05-07T19:14:34;16.40;99.90
25320;DHT22;13256;49.012;8.610;2023-05-07T19:17:00;16.40;99.90
25320;DHT22;13256;49.012;8.610;2023-05-07T19:19:27;16.40;99.90
25320;DHT22;13256;49.012;8.610;2023-05-07T19:21:54;16.30;99.90
25320;DHT22;13256;49.012;8.610;2023-05-07T19:24:23;16.30;99.90
25320;DHT22;13256;49.012;8.610;2023-05-07T19:26:54;16.20;99.90
25320;DHT22;13256;49.012;8.610;2023-05-07T19:29:23;16.20;99.90
25320;DHT22;13256;49.012;8.610;2023-05-07T19:31:53;16.10;99.90
25320;DHT22;13256;49.012;8.610;2023-05-07T19:34:20;16.10;99.90
25320;DHT22;13256;49.012;8.610;2023-05-07T19:36:46;16.00;99.90
25320;DHT22;13256;49.012;8.610;2023-05-07T19:39:17;16.00;99.90
25320;DHT22;13256;49.012;8.610;2023-05-07T19:41:46;15.90;99.90
25320;DHT22;13256;49.012;8.610;2023-05-07T19:44:19;15.90;99.90
25320;DHT22;13256;49.012;8.610;2023-05-07T19:46:54;15.90;99.90
25320;DHT22;13256;49.012;8.610;2023-05-07T19:49:27;15.80;99.90
25320;DHT22;13256;49.012;8.610;2023-05-07T19:51:54;15.80;99.90
25320;DHT22;13256;49.012;8.610;2023-05-07T19:54:21;15.70;99.90
25320;DHT22;13256;49.012;8.610;2023-05-07T19:56:48;15.80;99.90
25320;DHT22;13256;49.012;8.610;2023-05-07T19:59:18;15.80;99.90
25320;DHT22;13256;49.012;8.610;2023-05-07T20:01:53;15.80;99.90
25320;DHT22;13256;49.012;8.610;2023-05-07T20:04:26;15.90;99.90
25320;DHT22;13256;49.012;8.610;2023-05-07T20:06:57;15.90;99.90
25320;DHT22;13256;49.012;8.610;2023-05-07T20:09:25;15.90;99.90
25320;DHT22;13256;49.012;8.610;2023-05-07T20:11:54;15.90;99.90
25320;DHT22;13256;49.012;8.610;2023-05-07T20:14:25;15.90;99.90
25320;DHT22;13256;49.012;8.610;2023-05-07T20:16:52;15.90;99.90